createdAt,value
2022-12-07T00:01:44.178Z,100.00
2022-12-07T00:04:13.660Z,100.00
2022-12-07T00:06:43.759Z,100.00
2022-12-07T00:09:16.293Z,99.98
2022-12-07T00:11:44.886Z,100.00
2022-12-07T00:14:15.144Z,100.00
2022-12-07T00:16:42.981Z,100.00
2022-12-07T00:19:11.320Z,100.00
2022-12-07T00:21:39.303Z,100.00
2022-12-07T00:24:06.791Z,100.00
2022-12-07T00:26:37.105Z,100.00
2022-12-07T00:29:24.411Z,100.00
2022-12-07T00:31:51.857Z,100.00
2022-12-07T00:34:21.182Z,100.00
2022-12-07T00:36:48.824Z,100.00
2022-12-07T00:39:16.070Z,100.00
2022-12-07T00:41:43.598Z,100.00
2022-12-07T00:44:10.568Z,100.00
2022-12-07T00:46:37.909Z,100.00
2022-12-07T00:49:05.217Z,100.00
2022-12-07T00:51:32.531Z,100.00
2022-12-07T00:53:59.569Z,100.00
2022-12-07T00:56:28.715Z,100.00
2022-12-07T00:59:04.000Z,100.00
2022-12-07T01:01:37.009Z,100.00
2022-12-07T01:04:04.579Z,100.00
2022-12-07T01:06:32.415Z,100.00
2022-12-07T01:09:00.200Z,100.00
2022-12-07T01:11:30.074Z,100.00
2022-12-07T01:13:57.724Z,100.00
2022-12-07T01:16:27.103Z,100.00
2022-12-07T01:18:56.003Z,100.00
2022-12-07T01:21:26.014Z,100.00
2022-12-07T01:23:53.666Z,100.00
2022-12-07T01:26:24.240Z,100.00
2022-12-07T01:28:51.939Z,100.00
2022-12-07T01:31:21.790Z,100.00
2022-12-07T01:33:51.954Z,100.00
2022-12-07T01:36:25.495Z,100.00
2022-12-07T01:38:57.712Z,100.00
2022-12-07T01:41:27.878Z,100.00
2022-12-07T01:44:14.914Z,100.00
2022-12-07T01:46:45.339Z,100.00
2022-12-07T01:49:24.385Z,100.00
2022-12-07T01:51:58.275Z,100.00
2022-12-07T01:54:26.879Z,100.00
2022-12-07T01:56:57.352Z,100.00
2022-12-07T01:59:27.300Z,100.00
2022-12-07T02:01:56.269Z,100.00
2022-12-07T02:04:24.299Z,100.00
2022-12-07T02:06:52.197Z,100.00
2022-12-07T02:09:19.434Z,100.00
2022-12-07T02:11:46.932Z,100.00
2022-12-07T02:14:14.036Z,100.00
2022-12-07T02:16:53.004Z,100.00
2022-12-07T02:19:40.162Z,100.00
2022-12-07T02:22:28.913Z,100.00
2022-12-07T02:25:14.480Z,100.00
2022-12-07T02:27:50.582Z,100.00
2022-12-07T02:30:21.375Z,100.00
2022-12-07T02:33:05.282Z,100.00
2022-12-07T02:35:38.173Z,100.00
2022-12-07T02:38:16.476Z,100.00
2022-12-07T02:41:06.668Z,100.00
2022-12-07T02:43:44.670Z,100.00
2022-12-07T02:46:21.885Z,100.00
2022-12-07T02:48:52.241Z,100.00
2022-12-07T02:51:20.547Z,100.00
2022-12-07T02:53:49.168Z,100.00
2022-12-07T02:56:34.499Z,100.00
2022-12-07T02:59:29.781Z,100.00
2022-12-07T03:02:27.935Z,100.00
2022-12-07T03:05:13.502Z,100.00
2022-12-07T03:07:59.794Z,100.00
2022-12-07T03:10:53.937Z,100.00
2022-12-07T03:13:45.715Z,100.00
2022-12-07T03:16:39.044Z,100.00
2022-12-07T03:19:14.060Z,100.00
2022-12-07T03:21:48.665Z,100.00
2022-12-07T03:24:18.651Z,100.00
2022-12-07T03:26:54.209Z,100.00
2022-12-07T03:29:26.669Z,100.00
2022-12-07T03:32:15.704Z,100.00
2022-12-07T03:34:54.845Z,100.00
2022-12-07T03:37:32.555Z,100.00
2022-12-07T03:40:02.852Z,100.00
2022-12-07T03:42:32.405Z,100.00
2022-12-07T03:45:02.734Z,100.00
2022-12-07T03:47:44.760Z,100.00
2022-12-07T03:50:32.564Z,100.00
2022-12-07T03:53:09.555Z,100.00
2022-12-07T03:55:40.332Z,100.00
2022-12-07T03:58:11.986Z,100.00
2022-12-07T04:00:39.369Z,100.00
2022-12-07T04:03:06.882Z,100.00
2022-12-07T04:05:34.038Z,100.00
2022-12-07T04:08:01.337Z,100.00
2022-12-07T04:10:28.288Z,100.00
2022-12-07T04:12:55.927Z,100.00
2022-12-07T04:15:23.882Z,100.00
2022-12-07T04:17:51.802Z,100.00
2022-12-07T04:20:18.840Z,100.00
2022-12-07T04:22:46.406Z,100.00
2022-12-07T04:25:13.753Z,100.00
2022-12-07T04:27:41.245Z,100.00
2022-12-07T04:30:08.959Z,100.00
2022-12-07T04:32:36.484Z,100.00
2022-12-07T04:35:04.351Z,100.00
2022-12-07T04:37:31.800Z,100.00
2022-12-07T04:39:59.035Z,100.00
2022-12-07T04:42:26.537Z,100.00
2022-12-07T04:44:53.535Z,100.00
2022-12-07T04:47:22.058Z,100.00
2022-12-07T04:49:49.036Z,100.00
2022-12-07T04:52:16.349Z,100.00
2022-12-07T04:54:43.318Z,100.00
2022-12-07T04:57:11.703Z,100.00
2022-12-07T04:59:43.818Z,100.00
2022-12-07T05:02:13.021Z,100.00
2022-12-07T05:04:40.119Z,100.00
2022-12-07T05:07:09.893Z,100.00
2022-12-07T05:09:37.843Z,100.00
2022-12-07T05:12:06.199Z,100.00
2022-12-07T05:14:43.684Z,100.00
2022-12-07T05:17:12.862Z,100.00
2022-12-07T05:19:40.824Z,100.00
2022-12-07T05:22:11.814Z,100.00
2022-12-07T05:24:38.769Z,100.00
2022-12-07T05:27:09.026Z,100.00
2022-12-07T05:29:36.289Z,100.00
2022-12-07T05:32:06.881Z,100.00
2022-12-07T05:34:34.543Z,100.00
2022-12-07T05:37:02.043Z,100.00
2022-12-07T05:39:29.048Z,100.00
2022-12-07T05:42:15.596Z,100.00
2022-12-07T05:44:54.659Z,100.00
2022-12-07T05:47:23.040Z,100.00
2022-12-07T05:49:50.413Z,100.00
2022-12-07T05:52:18.135Z,100.00
2022-12-07T05:54:45.614Z,100.00
2022-12-07T05:57:13.094Z,100.00
2022-12-07T05:59:40.136Z,100.00
2022-12-07T06:02:13.268Z,100.00
2022-12-07T06:04:43.281Z,100.00
2022-12-07T06:07:18.634Z,100.00
2022-12-07T06:09:46.737Z,100.00
2022-12-07T06:12:34.335Z,100.00
2022-12-07T06:15:04.886Z,100.00
2022-12-07T06:17:33.053Z,100.00
2022-12-07T06:20:00.419Z,100.00
2022-12-07T06:22:28.064Z,100.00
2022-12-07T06:24:55.570Z,100.00
2022-12-07T06:27:22.989Z,100.00
2022-12-07T06:29:50.104Z,100.00
2022-12-07T06:32:17.838Z,100.00
2022-12-07T06:34:44.878Z,100.00
2022-12-07T06:37:12.248Z,100.00
2022-12-07T06:39:39.972Z,100.00
2022-12-07T06:42:07.371Z,100.00
2022-12-07T06:44:34.545Z,100.00
2022-12-07T06:47:31.956Z,100.00
2022-12-07T06:49:49.144Z,100.00
2022-12-07T06:52:16.575Z,100.00
2022-12-07T06:54:43.609Z,100.00
2022-12-07T06:57:11.122Z,100.00
2022-12-07T06:59:38.181Z,100.00
2022-12-07T07:02:06.534Z,100.00
2022-12-07T07:04:33.707Z,100.00
2022-12-07T07:07:03.222Z,99.84
2022-12-07T07:09:30.438Z,100.00
2022-12-07T07:11:57.849Z,99.92
2022-12-07T07:14:25.724Z,99.91
2022-12-07T07:16:53.804Z,99.78
2022-12-07T07:19:20.939Z,100.00
2022-12-07T07:21:48.302Z,99.85
2022-12-07T07:24:15.332Z,99.84
2022-12-07T07:26:42.755Z,100.00
2022-12-07T07:29:20.007Z,99.69
2022-12-07T07:31:47.490Z,99.67
2022-12-07T07:34:14.970Z,99.22
2022-12-07T07:36:42.709Z,99.58
2022-12-07T07:39:11.235Z,99.41
2022-12-07T07:41:38.651Z,99.48
2022-12-07T07:44:05.702Z,99.64
2022-12-07T07:46:34.533Z,99.66
2022-12-07T07:49:03.575Z,99.82
2022-12-07T07:51:31.556Z,100.00
2022-12-07T07:53:58.601Z,99.96
2022-12-07T07:56:27.004Z,99.99
2022-12-07T07:58:56.853Z,99.85
2022-12-07T08:04:17.882Z,100.00
2022-12-07T08:06:48.611Z,99.86
2022-12-07T08:09:18.642Z,99.90
2022-12-07T08:11:46.626Z,99.58
2022-12-07T08:14:13.769Z,99.73
2022-12-07T08:16:43.307Z,99.49
2022-12-07T08:19:10.487Z,99.61
2022-12-07T08:21:39.126Z,99.99
2022-12-07T08:24:06.665Z,99.87
2022-12-07T08:26:34.789Z,100.00
2022-12-07T08:29:04.229Z,100.00
2022-12-07T08:31:33.664Z,100.00
2022-12-07T08:34:01.406Z,100.00
2022-12-07T08:36:28.916Z,100.00
2022-12-07T08:39:29.649Z,100.00
2022-12-07T08:41:43.377Z,100.00
2022-12-07T08:44:10.323Z,99.52
2022-12-07T08:46:51.206Z,99.39
2022-12-07T08:49:25.311Z,99.36
2022-12-07T08:51:52.958Z,99.01
2022-12-07T08:54:23.245Z,98.89
2022-12-07T08:56:59.311Z,99.10
2022-12-07T08:59:33.380Z,99.45
2022-12-07T09:02:04.495Z,99.19
2022-12-07T09:04:32.135Z,99.85
2022-12-07T09:07:14.866Z,99.79
2022-12-07T09:09:43.449Z,100.00
2022-12-07T09:12:11.728Z,100.00
2022-12-07T09:14:39.119Z,100.00
2022-12-07T09:17:11.490Z,100.00
2022-12-07T09:19:39.376Z,100.00
2022-12-07T09:22:06.490Z,100.00
2022-12-07T09:24:34.679Z,100.00
2022-12-07T09:27:01.714Z,99.80
2022-12-07T09:29:29.063Z,99.69
2022-12-07T09:31:56.321Z,99.15
2022-12-07T09:34:24.774Z,99.01
2022-12-07T09:36:51.852Z,99.02
2022-12-07T09:39:20.560Z,99.40
2022-12-07T09:41:47.720Z,99.85
2022-12-07T09:44:23.304Z,99.83
2022-12-07T09:46:54.121Z,99.77
2022-12-07T09:49:25.318Z,99.84
2022-12-07T09:52:12.531Z,99.61
2022-12-07T09:54:45.401Z,99.82
2022-12-07T10:00:43.087Z,99.70
2022-12-07T10:03:13.385Z,99.63
2022-12-07T10:05:46.725Z,99.66
2022-12-07T10:08:16.915Z,99.41
2022-12-07T10:10:45.530Z,99.35
2022-12-07T10:13:15.562Z,99.28
2022-12-07T10:15:54.949Z,99.30
2022-12-07T10:18:42.452Z,99.44
2022-12-07T10:21:10.158Z,99.69
2022-12-07T10:23:40.473Z,99.39
2022-12-07T10:26:41.311Z,99.25
2022-12-07T10:29:27.640Z,99.41
2022-12-07T10:32:01.184Z,99.14
2022-12-07T10:34:35.289Z,99.51
2022-12-07T10:37:18.695Z,99.36
2022-12-07T10:39:56.206Z,98.64
2022-12-07T10:42:29.362Z,98.86
2022-12-07T10:45:20.443Z,98.28
2022-12-07T10:47:57.241Z,98.55
2022-12-07T10:50:59.819Z,98.57
2022-12-07T10:53:54.245Z,97.65
2022-12-07T10:56:58.963Z,98.05
2022-12-07T10:59:35.997Z,98.58
2022-12-07T11:02:22.413Z,97.89
2022-12-07T11:05:30.616Z,97.26
2022-12-07T11:08:16.329Z,96.98
2022-12-07T11:11:04.095Z,97.47
2022-12-07T11:14:09.134Z,97.78
2022-12-07T11:17:07.119Z,98.20
2022-12-07T11:20:02.188Z,98.37
2022-12-07T11:22:51.155Z,98.18
2022-12-07T11:25:29.012Z,98.22
2022-12-07T11:28:25.746Z,98.40
2022-12-07T11:31:32.631Z,98.26
2022-12-07T11:34:24.859Z,98.37
2022-12-07T11:36:57.912Z,98.01
2022-12-07T11:39:34.196Z,97.79
2022-12-07T11:42:10.736Z,97.34
2022-12-07T11:45:04.602Z,97.44
2022-12-07T11:47:46.509Z,97.58
2022-12-07T11:50:42.043Z,97.58
2022-12-07T11:53:09.561Z,97.50
2022-12-07T11:55:52.358Z,97.35
2022-12-07T11:58:28.021Z,97.64
2022-12-07T12:04:11.485Z,98.38
2022-12-07T12:06:43.885Z,98.49
2022-12-07T12:09:38.646Z,98.77
2022-12-07T12:15:39.927Z,98.54
2022-12-07T12:19:05.142Z,98.39
2022-12-07T12:21:33.504Z,98.00
2022-12-07T12:24:19.110Z,97.49
2022-12-07T12:26:54.965Z,96.96
2022-12-07T12:29:35.307Z,96.53
2022-12-07T12:32:15.972Z,95.97
2022-12-07T12:35:04.064Z,96.39
2022-12-07T12:37:34.931Z,96.31
2022-12-07T12:40:17.389Z,96.33
2022-12-07T12:42:50.211Z,96.69
2022-12-07T12:45:27.807Z,95.79
2022-12-07T12:48:00.637Z,96.24
2022-12-07T12:50:32.904Z,96.08
2022-12-07T12:53:04.241Z,96.67
2022-12-07T12:55:43.473Z,96.70
2022-12-07T12:58:19.964Z,96.99
2022-12-07T13:01:10.696Z,96.53
2022-12-07T13:03:38.256Z,95.91
2022-12-07T13:06:20.928Z,96.27
2022-12-07T13:08:48.495Z,95.67
2022-12-07T13:11:29.076Z,95.80
2022-12-07T13:14:35.222Z,96.11
2022-12-07T13:17:02.895Z,95.50
2022-12-07T13:19:42.447Z,95.66
2022-12-07T13:22:31.256Z,95.79
2022-12-07T13:25:10.823Z,95.20
2022-12-07T13:27:45.082Z,94.92
2022-12-07T13:30:17.695Z,95.13
2022-12-07T13:32:52.237Z,95.09
2022-12-07T13:35:31.125Z,94.94
2022-12-07T13:37:58.433Z,94.77
2022-12-07T13:40:26.379Z,94.74
2022-12-07T13:43:04.457Z,95.00
2022-12-07T13:45:51.744Z,94.82
2022-12-07T13:48:45.374Z,95.24
2022-12-07T13:51:36.718Z,95.03
2022-12-07T13:54:11.981Z,95.41
2022-12-07T13:56:40.734Z,95.62
2022-12-07T13:59:24.003Z,95.46
2022-12-07T14:01:53.369Z,95.85
2022-12-07T14:04:20.476Z,96.12
2022-12-07T14:06:52.215Z,96.13
2022-12-07T14:09:23.529Z,96.56
2022-12-07T14:11:53.428Z,96.64
2022-12-07T14:14:43.820Z,96.33
2022-12-07T14:17:30.521Z,96.56
2022-12-07T14:20:01.098Z,96.94
2022-12-07T14:22:37.187Z,96.98
2022-12-07T14:25:28.600Z,97.18
2022-12-07T14:28:05.653Z,97.35
2022-12-07T14:30:35.301Z,97.08
2022-12-07T14:33:05.703Z,97.28
2022-12-07T14:35:33.558Z,97.05
2022-12-07T14:38:00.951Z,97.43
2022-12-07T14:40:31.160Z,97.27
2022-12-07T14:43:03.917Z,97.75
2022-12-07T14:45:32.192Z,97.19
2022-12-07T14:53:44.319Z,97.00
2022-12-07T14:56:11.318Z,96.75
2022-12-07T14:58:38.772Z,96.90
2022-12-07T15:01:06.527Z,97.30
2022-12-07T15:03:35.986Z,97.32
2022-12-07T15:06:05.285Z,97.55
2022-12-07T15:08:32.848Z,97.76
2022-12-07T15:11:00.216Z,97.70
2022-12-07T15:13:46.272Z,97.23
2022-12-07T15:16:17.819Z,97.47
2022-12-07T15:19:04.964Z,97.18
2022-12-07T15:21:34.206Z,96.96
2022-12-07T15:24:01.940Z,96.96
2022-12-07T15:26:29.153Z,96.49
2022-12-07T15:28:56.903Z,96.37
2022-12-07T15:31:54.108Z,96.57
2022-12-07T15:34:11.634Z,96.23
2022-12-07T15:36:38.749Z,96.30
2022-12-07T15:41:47.518Z,96.18
2022-12-07T15:44:34.340Z,96.62
2022-12-07T15:47:05.089Z,96.32
2022-12-07T15:52:24.179Z,95.81
2022-12-07T15:54:51.522Z,95.98
2022-12-07T15:57:25.031Z,96.39
2022-12-07T15:59:53.521Z,96.26
2022-12-07T16:02:20.843Z,96.88
2022-12-07T16:04:48.358Z,96.46
2022-12-07T16:07:21.752Z,96.28
2022-12-07T16:09:53.050Z,96.66
2022-12-07T16:12:20.206Z,96.24
2022-12-07T16:14:48.050Z,96.19
2022-12-07T16:17:15.378Z,95.76
2022-12-07T16:19:42.951Z,96.25
2022-12-07T16:22:10.008Z,96.45
2022-12-07T16:24:37.644Z,96.42
2022-12-07T16:27:04.703Z,96.61
2022-12-07T16:29:32.307Z,96.37
2022-12-07T16:31:59.457Z,97.06
2022-12-07T16:34:27.034Z,97.45
2022-12-07T16:37:03.851Z,97.37
2022-12-07T16:39:33.086Z,97.47
2022-12-07T16:42:00.220Z,97.47
2022-12-07T16:44:27.823Z,97.52
2022-12-07T16:46:55.205Z,97.36
2022-12-07T16:49:25.135Z,97.43
2022-12-07T16:52:14.785Z,97.41
2022-12-07T16:54:42.264Z,97.16
2022-12-07T16:57:09.727Z,97.33
2022-12-07T16:59:53.434Z,97.23
2022-12-07T17:02:27.002Z,97.75
2022-12-07T17:07:43.407Z,97.61
2022-12-07T17:10:12.202Z,97.77
2022-12-07T17:12:41.115Z,98.18
2022-12-07T17:15:18.310Z,98.06
2022-12-07T17:17:46.178Z,98.09
2022-12-07T17:20:17.834Z,98.15
2022-12-07T17:22:45.447Z,98.11
2022-12-07T17:25:13.029Z,98.08
2022-12-07T17:27:40.414Z,98.03
2022-12-07T17:30:08.651Z,97.39
2022-12-07T17:32:35.681Z,97.18
2022-12-07T17:35:03.777Z,98.00
2022-12-07T17:37:32.403Z,97.94
2022-12-07T17:39:59.828Z,98.49
2022-12-07T17:42:46.581Z,98.69
2022-12-07T17:45:14.381Z,98.84
2022-12-07T17:47:42.558Z,99.09
2022-12-07T17:50:11.642Z,99.29
2022-12-07T17:52:58.808Z,99.59
2022-12-07T17:55:43.785Z,99.49
2022-12-07T17:58:19.434Z,99.77
2022-12-07T18:00:46.963Z,99.99
2022-12-07T18:03:14.377Z,100.00
2022-12-07T18:05:48.027Z,100.00
2022-12-07T18:08:15.147Z,99.92
2022-12-07T18:10:42.718Z,100.00
2022-12-07T18:13:28.466Z,100.00
2022-12-07T18:15:58.823Z,100.00
2022-12-07T18:18:25.931Z,100.00
2022-12-07T18:20:53.577Z,100.00
2022-12-07T18:23:26.213Z,100.00
2022-12-07T18:25:53.928Z,100.00
2022-12-07T18:28:21.036Z,100.00
2022-12-07T18:31:14.248Z,100.00
2022-12-07T18:33:41.194Z,100.00
2022-12-07T18:36:24.805Z,100.00
2022-12-07T18:38:52.301Z,100.00
2022-12-07T18:41:21.161Z,100.00
2022-12-07T18:43:48.957Z,100.00
2022-12-07T18:46:21.315Z,100.00
2022-12-07T18:48:50.554Z,100.00
2022-12-07T18:51:20.191Z,100.00
2022-12-07T18:53:50.653Z,100.00
2022-12-07T18:56:22.241Z,99.95
2022-12-07T18:59:13.403Z,99.86
2022-12-07T19:01:45.314Z,99.78
2022-12-07T19:04:14.480Z,99.62
2022-12-07T19:06:43.852Z,99.46
2022-12-07T19:09:13.785Z,99.60
2022-12-07T19:11:52.247Z,99.17
2022-12-07T19:14:28.129Z,99.63
2022-12-07T19:17:01.516Z,99.37
2022-12-07T19:19:36.340Z,99.76
2022-12-07T19:22:05.164Z,99.80
2022-12-07T19:24:35.693Z,99.91
2022-12-07T19:27:06.698Z,99.79
2022-12-07T19:29:34.855Z,99.75
2022-12-07T19:32:03.510Z,99.67
2022-12-07T19:34:31.867Z,99.76
2022-12-07T19:37:07.593Z,99.57
2022-12-07T19:39:49.441Z,99.78
2022-12-07T19:42:16.624Z,99.29
2022-12-07T19:44:50.422Z,99.42
2022-12-07T19:47:22.483Z,99.54
2022-12-07T19:49:49.979Z,99.13
2022-12-07T19:52:17.443Z,98.95
2022-12-07T19:54:45.720Z,99.23
2022-12-07T19:57:23.263Z,99.21
2022-12-07T19:59:55.521Z,99.22
2022-12-07T20:02:23.938Z,98.74
2022-12-07T20:05:17.100Z,98.46
2022-12-07T20:07:44.162Z,98.28
2022-12-07T20:10:19.480Z,98.33
2022-12-07T20:13:10.181Z,98.38
2022-12-07T20:15:42.279Z,98.35
2022-12-07T20:18:09.572Z,98.35
2022-12-07T20:20:37.008Z,97.94
2022-12-07T20:23:04.096Z,98.33
2022-12-07T20:25:32.428Z,98.31
2022-12-07T20:28:00.634Z,98.40
2022-12-07T20:30:28.200Z,98.81
2022-12-07T20:32:55.292Z,98.61
2022-12-07T20:35:22.655Z,98.50
2022-12-07T20:37:49.822Z,98.88
2022-12-07T20:40:17.304Z,98.53
2022-12-07T20:42:44.786Z,99.31
2022-12-07T20:45:12.531Z,99.44
2022-12-07T20:47:39.590Z,98.75
2022-12-07T20:50:17.575Z,98.74
2022-12-07T20:56:24.956Z,98.50
2022-12-07T20:58:57.859Z,98.92
2022-12-07T21:04:07.564Z,99.35
2022-12-07T21:26:28.913Z,98.50
2022-12-07T21:28:59.680Z,98.48
2022-12-07T21:31:43.806Z,98.34
2022-12-07T21:36:54.365Z,98.20
2022-12-07T21:39:40.762Z,98.42
2022-12-07T21:42:20.333Z,98.70
2022-12-07T21:47:46.628Z,99.11
2022-12-07T21:52:57.147Z,99.07
2022-12-07T22:01:06.717Z,98.99
2022-12-07T22:03:49.811Z,98.73
2022-12-07T22:09:18.199Z,99.12
2022-12-07T22:17:43.695Z,99.02
2022-12-07T22:20:11.342Z,98.78
2022-12-07T22:25:35.413Z,98.71
2022-12-07T22:28:02.368Z,98.95
2022-12-07T22:35:55.863Z,99.51
2022-12-07T22:41:17.988Z,98.94
2022-12-07T22:43:46.392Z,98.96
2022-12-07T22:46:16.468Z,99.06
2022-12-07T22:48:44.695Z,99.02
2022-12-07T22:51:24.057Z,99.24
2022-12-07T22:53:51.907Z,99.09
2022-12-07T22:56:22.454Z,98.63
2022-12-07T22:58:50.028Z,98.41
2022-12-07T23:01:19.419Z,98.52
2022-12-07T23:03:47.360Z,98.30
2022-12-07T23:06:23.431Z,98.21
2022-12-07T23:08:51.854Z,98.16
2022-12-07T23:11:44.014Z,98.25
2022-12-07T23:16:55.470Z,97.51
2022-12-07T23:19:24.946Z,96.87
2022-12-07T23:21:52.502Z,97.31
2022-12-07T23:24:21.571Z,97.23
2022-12-07T23:29:34.076Z,97.49
2022-12-07T23:32:01.992Z,97.82
2022-12-07T23:34:32.922Z,97.25
2022-12-07T23:37:00.573Z,97.69
2022-12-07T23:39:27.611Z,98.09
2022-12-07T23:41:56.405Z,98.31
2022-12-07T23:44:23.733Z,97.96
2022-12-07T23:46:51.725Z,98.35
2022-12-07T23:49:19.285Z,98.31
2022-12-07T23:51:57.964Z,98.20
2022-12-07T23:54:24.961Z,98.44
2022-12-07T23:56:55.575Z,98.22
2022-12-07T23:59:22.988Z,98.50
